Time;durP1;ratioP1;P1;durP2;ratioP2;P2;SDS_P1;SDS_P2;PMS_P1;PMS_P2;Temp;Humidity;BMP_temperature;BMP_pressure;BME280_temperature;BME280_humidity;BME280_pressure;Samples;Min_cycle;Max_cycle;Signal;HPM_P1;HPM_P2
2021/07/24 00:00:38;;;;;;;2.93;2.73;;;;;24.10;100152.00;;;;2043090;29;20223;-65
2021/07/24 00:01:39;;;;;;;2.77;2.57;;;;;24.20;100146.00;;;;2051089;28;20786;-65
2021/07/24 00:02:39;;;;;;;2.80;2.60;;;;;24.20;100145.00;;;;2058912;28;20712;-65
2021/07/24 00:03:39;;;;;;;2.97;2.77;;;;;24.20;100147.00;;;;2059682;28;20578;-65
2021/07/24 00:04:40;;;;;;;3.10;2.90;;;;;24.20;100146.00;;;;2060527;28;20673;-65
2021/07/24 00:05:40;;;;;;;3.10;2.80;;;;;24.20;100143.00;;;;2063603;28;20219;-65
2021/07/24 00:06:40;;;;;;;3.00;2.80;;;;;24.20;100147.00;;;;2062704;28;20215;-65
2021/07/24 00:07:41;;;;;;;2.87;2.67;;;;;24.20;100150.00;;;;2061448;28;20581;-65
2021/07/24 00:08:41;;;;;;;3.33;3.10;;;;;24.20;100143.00;;;;2060772;28;20214;-65
2021/07/24 00:09:41;;;;;;;2.90;2.70;;;;;24.10;100142.00;;;;2059615;28;20210;-65
2021/07/24 00:10:42;;;;;;;2.70;2.50;;;;;24.10;100146.00;;;;2062278;28;20207;-64
2021/07/24 00:11:42;;;;;;;3.07;2.77;;;;;24.20;100137.00;;;;2060282;28;20239;-65
2021/07/24 00:12:43;;;;;;;2.87;2.67;;;;;24.10;100141.00;;;;2059817;28;20217;-65
2021/07/24 00:13:43;;;;;;;3.03;2.83;;;;;24.10;100129.00;;;;2059990;28;20674;-65
2021/07/24 00:14:43;;;;;;;3.43;3.13;;;;;24.10;100131.00;;;;2059593;28;20237;-64
2021/07/24 00:15:44;;;;;;;3.40;3.10;;;;;24.10;100128.00;;;;2059543;28;20227;-65
2021/07/24 00:16:44;;;;;;;3.20;2.90;;;;;24.10;100131.00;;;;2059662;28;20242;-65
2021/07/24 00:17:44;;;;;;;3.20;2.90;;;;;24.10;100127.00;;;;2059653;28;20215;-65
2021/07/24 00:18:45;;;;;;;3.47;3.20;;;;;24.10;100132.00;;;;2060100;28;20220;-65
2021/07/24 00:19:45;;;;;;;3.20;3.00;;;;;24.10;100138.00;;;;2060249;28;20234;-64
2021/07/24 00:20:45;;;;;;;2.90;2.70;;;;;24.10;100135.00;;;;2059829;28;20259;-65
2021/07/24 00:21:46;;;;;;;2.97;2.77;;;;;24.10;100134.00;;;;2060128;28;20281;-65
2021/07/24 00:22:46;;;;;;;3.03;2.83;;;;;24.10;100135.00;;;;2059951;28;20215;-65
2021/07/24 00:23:46;;;;;;;3.17;2.97;;;;;24.10;100133.00;;;;2059283;28;20305;-65
2021/07/24 00:24:47;;;;;;;3.17;2.97;;;;;24.10;100133.00;;;;2059458;28;20218;-65
2021/07/24 00:25:47;;;;;;;3.07;2.87;;;;;24.10;100128.00;;;;2059569;28;20215;-65
2021/07/24 00:26:48;;;;;;;4.40;2.90;;;;;24.10;100116.00;;;;2059201;28;20227;-65
2021/07/24 00:27:48;;;;;;;3.73;3.30;;;;;24.10;100119.00;;;;2058862;28;20236;-65
2021/07/24 00:28:49;;;;;;;2.97;2.77;;;;;24.10;100134.00;;;;2059002;28;20227;-65
2021/07/24 00:29:54;;;;;;;2.80;2.60;;;;;24.10;100126.00;;;;2059119;28;20224;-65
2021/07/24 00:30:54;;;;;;;4.05;3.10;;;;;24.10;100129.00;;;;2059297;28;20601;-65
2021/07/24 00:31:54;;;;;;;3.40;3.10;;;;;24.10;100125.00;;;;2060169;28;20215;-65
2021/07/24 00:32:55;;;;;;;2.80;2.60;;;;;24.10;100124.00;;;;2059916;28;20211;-65
2021/07/24 00:33:56;;;;;;;3.07;2.87;;;;;24.10;100123.00;;;;2060052;28;20234;-65
2021/07/24 00:34:56;;;;;;;4.03;3.73;;;;;24.10;100126.00;;;;2059614;28;20237;-65
2021/07/24 00:35:56;;;;;;;2.93;2.73;;;;;24.10;100121.00;;;;2058572;28;20474;-65
2021/07/24 00:36:58;;;;;;;3.17;2.87;;;;;24.10;100122.00;;;;2058845;28;20222;-64
2021/07/24 00:37:58;;;;;;;3.35;3.15;;;;;24.10;100116.00;;;;2061625;28;20720;-65
2021/07/24 00:38:58;;;;;;;3.53;3.23;;;;;24.10;100118.00;;;;2062149;28;20249;-65
2021/07/24 00:39:59;;;;;;;2.90;2.70;;;;;24.10;100127.00;;;;2059745;28;20219;-65
2021/07/24 00:41:01;;;;;;;2.90;2.70;;;;;24.10;100114.00;;;;2058336;28;20310;-65
2021/07/24 00:42:15;;;;;;;3.70;3.38;;;;;24.10;100113.00;;;;2050582;28;20255;-65
2021/07/24 00:43:15;;;;;;;3.10;2.90;;;;;24.10;100078.00;;;;2043973;28;20219;-65
2021/07/24 00:44:16;;;;;;;3.10;2.90;;;;;24.10;100106.00;;;;2026643;29;20653;-65
2021/07/24 00:45:17;;;;;;;3.50;3.20;;;;;24.10;100103.00;;;;2035897;29;21291;-65
2021/07/24 00:46:19;;;;;;;3.07;2.87;;;;;24.10;100099.00;;;;2042653;28;20543;-65
2021/07/24 00:47:22;;;;;;;3.63;3.33;;;;;24.10;100103.00;;;;2043052;29;20472;-64
2021/07/24 00:48:23;;;;;;;3.80;3.50;;;;;24.10;100099.00;;;;2051228;28;20223;-65
2021/07/24 00:49:25;;;;;;;3.57;3.27;;;;;24.10;100101.00;;;;2059657;28;20655;-65
2021/07/24 00:50:25;;;;;;;3.03;2.83;;;;;24.10;100086.00;;;;2059479;28;20473;-64
2021/07/24 00:51:38;;;;;;;3.63;3.33;;;;;24.10;100091.00;;;;2051478;28;20239;-64
2021/07/24 00:52:41;;;;;;;3.30;3.05;;;;;24.10;100093.00;;;;2045204;28;20696;-64
2021/07/24 00:53:41;;;;;;;3.53;3.22;;;;;24.10;100087.00;;;;2055160;28;20298;-65
2021/07/24 00:54:41;;;;;;;3.53;3.23;;;;;24.10;100092.00;;;;2059413;28;20215;-65
2021/07/24 00:55:42;;;;;;;3.50;3.20;;;;;24.10;100094.00;;;;2042947;29;20217;-65
2021/07/24 00:56:43;;;;;;;3.37;3.07;;;;;24.10;100095.00;;;;2043682;29;20213;-65
2021/07/24 00:57:46;;;;;;;3.33;3.03;;;;;24.10;100094.00;;;;2050833;28;20216;-65
2021/07/24 00:58:46;;;;;;;3.70;3.40;;;;;24.10;100096.00;;;;2059639;28;20458;-64
2021/07/24 00:59:47;;;;;;;3.30;3.10;;;;;24.10;100091.00;;;;2059165;28;20309;-64
2021/07/24 01:00:47;;;;;;;3.50;3.20;;;;;24.10;100096.00;;;;2058188;28;20226;-65
2021/07/24 01:01:47;;;;;;;3.37;3.07;;;;;24.10;100089.00;;;;2058847;28;20225;-65
2021/07/24 01:02:47;;;;;;;3.40;3.20;;;;;24.10;100093.00;;;;2058261;28;20247;-65
2021/07/24 01:03:48;;;;;;;3.57;3.37;;;;;24.10;100083.00;;;;2058676;28;20223;-65
2021/07/24 01:04:49;;;;;;;3.70;3.40;;;;;24.10;100088.00;;;;2050722;28;20223;-65
2021/07/24 01:05:51;;;;;;;3.90;3.60;;;;;24.10;100092.00;;;;2050887;28;20216;-65
2021/07/24 01:06:51;;;;;;;3.47;3.17;;;;;24.10;100095.00;;;;2059285;28;20219;-65
2021/07/24 01:07:51;;;;;;;3.53;3.23;;;;;24.10;100090.00;;;;2048092;28;20220;-65
2021/07/24 01:08:52;;;;;;;3.17;2.97;;;;;24.10;100099.00;;;;2051120;28;20258;-65
2021/07/24 01:09:52;;;;;;;3.37;3.17;;;;;24.10;100091.00;;;;2061000;28;20215;-65
2021/07/24 01:10:53;;;;;;;3.63;3.33;;;;;24.10;100098.00;;;;2061872;28;20215;-65
2021/07/24 01:11:53;;;;;;;3.47;3.20;;;;;24.10;100087.00;;;;2060028;28;20227;-64
2021/07/24 01:12:53;;;;;;;3.60;3.30;;;;;24.10;100062.00;;;;2050454;28;20220;-65
2021/07/24 01:13:54;;;;;;;3.40;3.20;;;;;24.10;100095.00;;;;2050220;28;20666;-65
2021/07/24 01:14:54;;;;;;;3.43;3.13;;;;;24.10;100097.00;;;;2059159;28;20658;-65
2021/07/24 01:15:55;;;;;;;3.10;2.90;;;;;24.10;100096.00;;;;2059193;28;20583;-65
2021/07/24 01:16:55;;;;;;;3.38;3.13;;;;;24.10;100092.00;;;;2059846;28;20225;-65
2021/07/24 01:17:56;;;;;;;3.80;3.50;;;;;24.10;100099.00;;;;2059901;28;20242;-65
2021/07/24 01:18:56;;;;;;;3.20;3.00;;;;;24.10;100095.00;;;;2059740;28;20297;-64
2021/07/24 01:19:56;;;;;;;3.43;3.13;;;;;24.10;100099.00;;;;2059997;28;20595;-64
2021/07/24 01:20:59;;;;;;;3.20;3.00;;;;;24.10;100102.00;;;;2059085;28;20215;-65
2021/07/24 01:21:59;;;;;;;3.55;3.30;;;;;24.10;100094.00;;;;2050583;28;20215;-65
2021/07/24 01:23:00;;;;;;;3.47;3.27;;;;;24.10;100100.00;;;;2050371;28;20216;-64
2021/07/24 01:24:00;;;;;;;3.30;3.10;;;;;24.10;100093.00;;;;2058716;28;20327;-65
2021/07/24 01:25:00;;;;;;;3.50;3.20;;;;;24.10;100090.00;;;;2055165;28;20563;-65
2021/07/24 01:26:01;;;;;;;3.47;3.17;;;;;24.10;100086.00;;;;2059761;28;20215;-64
2021/07/24 01:27:08;;;;;;;2.90;2.70;;;;;24.10;100087.00;;;;2059796;28;20215;-65
2021/07/24 01:28:08;;;;;;;3.72;3.42;;;;;24.10;100085.00;;;;2051106;28;20290;-65
2021/07/24 01:29:12;;;;;;;3.03;2.83;;;;;24.10;100074.00;;;;2050389;28;20207;-65
2021/07/24 01:30:13;;;;;;;3.70;3.40;;;;;24.10;100075.00;;;;2058465;28;20211;-64
2021/07/24 01:31:13;;;;;;;3.33;3.07;;;;;24.10;100074.00;;;;2059102;28;25459;-65
2021/07/24 01:32:14;;;;;;;4.03;3.33;;;;;24.10;100060.00;;;;2059264;28;20269;-65
2021/07/24 01:33:14;;;;;;;4.07;3.77;;;;;24.10;100066.00;;;;2059668;28;20224;-65
2021/07/24 01:34:14;;;;;;;3.33;3.13;;;;;24.10;100073.00;;;;2059287;28;20310;-65
2021/07/24 01:35:15;;;;;;;3.30;3.10;;;;;24.10;100066.00;;;;2059646;28;20219;-65
2021/07/24 01:36:15;;;;;;;3.60;3.30;;;;;24.10;100079.00;;;;2059638;28;20277;-65
2021/07/24 01:37:15;;;;;;;3.00;2.80;;;;;24.10;100069.00;;;;2059182;28;20257;-65
2021/07/24 01:38:16;;;;;;;3.40;3.20;;;;;24.10;100073.00;;;;2061911;28;20269;-65
2021/07/24 01:39:17;;;;;;;3.67;3.40;;;;;24.10;100081.00;;;;2061003;28;20261;-65
2021/07/24 01:40:17;;;;;;;3.47;3.17;;;;;24.10;100079.00;;;;2052512;28;20216;-65
2021/07/24 01:41:17;;;;;;;3.90;3.60;;;;;24.10;100074.00;;;;2051001;28;20219;-65
2021/07/24 01:42:18;;;;;;;3.60;3.30;;;;;24.10;100075.00;;;;2059782;28;20216;-65
2021/07/24 01:43:18;;;;;;;3.27;2.97;;;;;24.10;100085.00;;;;2059282;28;20249;-65
2021/07/24 01:44:18;;;;;;;3.60;3.30;;;;;24.10;100073.00;;;;2059641;28;20305;-65
2021/07/24 01:45:19;;;;;;;2.73;2.53;;;;;24.10;100078.00;;;;2059275;28;20238;-65
2021/07/24 01:46:19;;;;;;;4.10;3.80;;;;;24.10;100081.00;;;;2057244;28;20221;-64
2021/07/24 01:47:20;;;;;;;3.97;3.67;;;;;24.10;100075.00;;;;2058939;28;20684;-65
2021/07/24 01:48:33;;;;;;;3.13;2.93;;;;;24.10;100081.00;;;;2058906;28;20239;-64
2021/07/24 01:53:37;;;;;;;3.95;3.65;;;;;24.10;100081.00;;;;2042002;29;20223;-65
2021/07/24 01:54:42;;;;;;;3.53;3.23;;;;;24.10;100083.00;;;;2039394;28;20688;-65
2021/07/24 01:55:44;;;;;;;3.70;3.40;;;;;24.10;100081.00;;;;2043367;28;20612;-65
2021/07/24 01:56:45;;;;;;;3.63;3.33;;;;;24.10;100080.00;;;;2051037;28;20707;-65
2021/07/24 01:57:47;;;;;;;4.00;3.70;;;;;24.10;100082.00;;;;2042845;28;20317;-65
2021/07/24 01:58:47;;;;;;;3.60;3.30;;;;;24.10;100086.00;;;;2051262;28;20306;-65
2021/07/24 01:59:47;;;;;;;3.40;3.20;;;;;24.10;100086.00;;;;2058194;28;20226;-65
2021/07/24 02:00:48;;;;;;;3.53;3.17;;;;;24.10;100085.00;;;;2048996;28;20215;-64
2021/07/24 02:01:50;;;;;;;4.23;3.83;;;;;24.10;100081.00;;;;2041749;29;20319;-65
2021/07/24 02:02:52;;;;;;;3.60;3.30;;;;;24.10;100082.00;;;;2037778;29;20312;-65
2021/07/24 02:04:02;;;;;;;3.60;3.35;;;;;24.10;100082.00;;;;2037509;29;20224;-65
2021/07/24 02:05:05;;;;;;;3.47;3.17;;;;;24.10;100079.00;;;;2036053;28;20221;-65
2021/07/24 02:06:05;;;;;;;3.60;3.30;;;;;24.10;100078.00;;;;2041989;29;20228;-65
2021/07/24 02:07:10;;;;;;;3.50;3.20;;;;;24.10;100073.00;;;;2027023;29;20578;-65
2021/07/24 02:08:11;;;;;;;3.55;3.30;;;;;24.10;100068.00;;;;2024537;29;20270;-65
2021/07/24 02:09:11;;;;;;;3.90;3.60;;;;;24.10;100070.00;;;;2042642;28;20271;-65
2021/07/24 02:10:11;;;;;;;3.83;3.53;;;;;24.10;100069.00;;;;2061267;28;20465;-64
2021/07/24 02:11:12;;;;;;;3.83;3.53;;;;;24.10;100066.00;;;;2045909;28;20215;-65
2021/07/24 02:12:13;;;;;;;3.67;3.37;;;;;24.10;100077.00;;;;2041337;29;20212;-65
2021/07/24 02:13:13;;;;;;;3.83;3.53;;;;;24.10;100074.00;;;;2058218;28;20467;-65
2021/07/24 02:14:13;;;;;;;3.37;3.17;;;;;24.10;100075.00;;;;2033062;29;21120;-65
2021/07/24 02:15:14;;;;;;;4.10;3.80;;;;;24.10;100080.00;;;;2034615;29;21346;-65
2021/07/24 02:16:14;;;;;;;3.73;3.43;;;;;24.10;100075.00;;;;2058232;28;20706;-65
2021/07/24 02:17:15;;;;;;;3.90;3.60;;;;;24.10;100068.00;;;;2058914;28;20225;-66
2021/07/24 02:18:16;;;;;;;3.23;3.03;;;;;24.10;100075.00;;;;2058826;28;20219;-65
2021/07/24 02:19:16;;;;;;;3.50;3.20;;;;;24.10;100070.00;;;;2058457;28;20226;-64
2021/07/24 02:20:19;;;;;;;3.53;3.30;;;;;24.10;100075.00;;;;2049420;28;20204;-65
2021/07/24 02:21:19;;;;;;;3.70;3.40;;;;;24.10;100079.00;;;;2050352;28;20212;-65
2021/07/24 02:22:19;;;;;;;4.00;3.70;;;;;24.10;100085.00;;;;2058700;28;20243;-65
2021/07/24 02:23:20;;;;;;;3.80;3.50;;;;;24.10;100080.00;;;;2058534;28;20282;-65
2021/07/24 02:24:20;;;;;;;3.80;3.50;;;;;24.10;100078.00;;;;2058360;28;20207;-65
2021/07/24 02:25:21;;;;;;;3.90;3.60;;;;;24.00;100083.00;;;;2058662;28;20262;-65
2021/07/24 02:26:21;;;;;;;3.20;3.00;;;;;24.10;100081.00;;;;2058645;28;20299;-65
2021/07/24 02:27:21;;;;;;;3.70;3.40;;;;;24.10;100074.00;;;;2059384;28;20211;-65
2021/07/24 02:28:22;;;;;;;3.83;3.53;;;;;24.10;100067.00;;;;2059315;28;20208;-65
2021/07/24 02:29:22;;;;;;;3.60;3.30;;;;;24.10;100064.00;;;;2059099;28;20210;-65
2021/07/24 02:30:22;;;;;;;3.60;3.30;;;;;24.10;100062.00;;;;2058374;28;20223;-64
2021/07/24 02:31:23;;;;;;;3.53;3.23;;;;;24.10;100060.00;;;;2058596;28;20229;-65
2021/07/24 02:32:23;;;;;;;4.33;3.93;;;;;24.10;100063.00;;;;2058316;28;20305;-65
2021/07/24 02:33:23;;;;;;;3.80;3.50;;;;;24.10;100059.00;;;;2058658;28;20230;-65
2021/07/24 02:34:24;;;;;;;3.43;3.23;;;;;24.10;100065.00;;;;2058484;28;20231;-64
2021/07/24 02:35:24;;;;;;;3.60;3.40;;;;;24.10;100059.00;;;;2059067;28;20306;-65
2021/07/24 02:36:24;;;;;;;3.80;3.40;;;;;24.10;100056.00;;;;2059341;28;20322;-65
2021/07/24 02:37:25;;;;;;;4.00;3.70;;;;;24.10;100053.00;;;;2059313;28;20223;-65
2021/07/24 02:38:25;;;;;;;3.97;3.57;;;;;24.10;100049.00;;;;2060985;28;20212;-66
2021/07/24 02:39:25;;;;;;;4.00;3.70;;;;;24.00;100044.00;;;;2060366;28;20219;-65
2021/07/24 02:40:26;;;;;;;3.40;3.10;;;;;24.10;100039.00;;;;2058616;28;20653;-64
2021/07/24 02:41:26;;;;;;;3.80;3.50;;;;;24.10;100041.00;;;;2059135;28;20233;-64
2021/07/24 02:42:26;;;;;;;4.33;3.50;;;;;24.10;100035.00;;;;2059317;28;20260;-65
2021/07/24 02:43:27;;;;;;;3.90;3.60;;;;;24.00;100042.00;;;;2059130;28;20203;-65
2021/07/24 02:44:28;;;;;;;3.97;3.67;;;;;24.10;100038.00;;;;2058441;28;20230;-65
2021/07/24 02:45:28;;;;;;;3.77;3.47;;;;;24.10;100044.00;;;;2058627;28;20841;-64
2021/07/24 02:46:28;;;;;;;3.30;3.10;;;;;24.10;100040.00;;;;2058514;28;20686;-65
2021/07/24 02:47:29;;;;;;;3.33;3.13;;;;;24.10;100043.00;;;;2058366;28;20219;-65
2021/07/24 02:48:29;;;;;;;3.90;3.60;;;;;24.00;100027.00;;;;2058426;28;20674;-65
2021/07/24 02:49:30;;;;;;;4.10;3.70;;;;;24.00;100027.00;;;;2058305;28;20242;-64
2021/07/24 02:50:30;;;;;;;4.47;4.07;;;;;24.00;100032.00;;;;2058006;28;20221;-65
2021/07/24 02:51:30;;;;;;;3.90;3.60;;;;;24.00;100025.00;;;;2058526;28;20749;-65
2021/07/24 02:52:31;;;;;;;3.63;3.33;;;;;24.00;100017.00;;;;2059147;28;20215;-65
2021/07/24 02:53:31;;;;;;;4.03;3.73;;;;;24.00;100012.00;;;;2059394;28;20219;-65
2021/07/24 02:54:31;;;;;;;4.23;3.93;;;;;24.00;100014.00;;;;2059318;28;20327;-65
2021/07/24 02:55:32;;;;;;;3.70;3.40;;;;;24.00;100016.00;;;;2059248;28;20254;-65
2021/07/24 02:56:32;;;;;;;4.07;3.77;;;;;24.00;100012.00;;;;2058911;28;20215;-65
2021/07/24 02:57:33;;;;;;;4.20;3.90;;;;;24.00;100015.00;;;;2057885;28;20211;-65
2021/07/24 02:58:33;;;;;;;4.13;3.83;;;;;24.00;100016.00;;;;2058534;28;20245;-65
2021/07/24 02:59:33;;;;;;;4.30;4.00;;;;;24.00;100007.00;;;;2058511;28;20315;-65
2021/07/24 03:00:34;;;;;;;4.13;3.83;;;;;24.00;100016.00;;;;2057920;28;20274;-64
2021/07/24 03:01:34;;;;;;;4.93;4.57;;;;;24.00;100007.00;;;;2059341;28;20734;-64
2021/07/24 03:02:34;;;;;;;4.10;3.80;;;;;24.00;100005.00;;;;2059080;28;20219;-65
2021/07/24 03:03:36;;;;;;;3.90;3.60;;;;;24.00;99999.00;;;;2060939;28;20226;-64
2021/07/24 03:04:36;;;;;;;7.68;3.83;;;;;24.00;99996.00;;;;2060784;28;20883;-65
2021/07/24 03:05:37;;;;;;;3.70;3.40;;;;;23.80;99997.00;;;;2060087;28;20249;-65
2021/07/24 03:06:37;;;;;;;3.93;3.63;;;;;24.00;99988.00;;;;2060094;28;20231;-65
2021/07/24 03:07:37;;;;;;;4.20;3.90;;;;;24.00;99992.00;;;;2062294;28;20214;-65
2021/07/24 03:08:38;;;;;;;3.90;3.60;;;;;24.00;99990.00;;;;2060753;28;20245;-64
2021/07/24 03:09:38;;;;;;;4.10;3.80;;;;;24.00;99991.00;;;;2058705;28;20246;-64
2021/07/24 03:10:39;;;;;;;4.23;3.83;;;;;24.00;99981.00;;;;2055123;28;20306;-65
2021/07/24 03:11:39;;;;;;;3.93;3.63;;;;;24.00;99982.00;;;;2060653;28;20230;-65
2021/07/24 03:12:39;;;;;;;4.10;3.80;;;;;24.00;99980.00;;;;2060805;28;20589;-64
2021/07/24 03:13:40;;;;;;;4.20;3.90;;;;;24.00;99976.00;;;;2060502;28;20589;-65
2021/07/24 03:14:40;;;;;;;4.07;3.77;;;;;24.00;99970.00;;;;2059987;28;20211;-65
2021/07/24 03:15:40;;;;;;;3.77;3.47;;;;;24.00;99969.00;;;;2059903;28;20272;-65
2021/07/24 03:16:41;;;;;;;3.60;3.30;;;;;24.00;99953.00;;;;2060178;28;20215;-65
2021/07/24 03:17:41;;;;;;;4.30;3.90;;;;;24.00;99964.00;;;;2060056;28;20215;-65
2021/07/24 03:18:41;;;;;;;4.77;4.33;;;;;24.00;99954.00;;;;2060779;28;20290;-65
2021/07/24 03:19:42;;;;;;;3.90;3.50;;;;;24.00;99968.00;;;;2060776;28;20215;-65
2021/07/24 03:20:42;;;;;;;4.00;3.70;;;;;24.00;99968.00;;;;2060161;28;20228;-64
2021/07/24 03:21:42;;;;;;;4.13;3.83;;;;;24.00;99974.00;;;;2060841;28;20219;-65
2021/07/24 03:22:43;;;;;;;3.93;3.60;;;;;24.00;99976.00;;;;2060184;28;20254;-65
2021/07/24 03:23:43;;;;;;;4.27;3.83;;;;;24.00;99980.00;;;;2059906;28;20298;-64
2021/07/24 03:24:43;;;;;;;3.97;3.67;;;;;24.00;99974.00;;;;2059790;28;20681;-65
2021/07/24 03:25:44;;;;;;;4.20;3.90;;;;;24.00;99976.00;;;;2059350;28;20980;-65
2021/07/24 03:26:44;;;;;;;4.20;3.90;;;;;24.00;99977.00;;;;2059657;28;20223;-65
2021/07/24 03:27:44;;;;;;;3.97;3.63;;;;;24.00;99985.00;;;;2060102;28;20277;-65
2021/07/24 03:28:45;;;;;;;3.33;3.13;;;;;24.00;99981.00;;;;2060328;28;20250;-65
2021/07/24 03:29:45;;;;;;;4.20;3.90;;;;;24.00;99991.00;;;;2060136;28;20338;-65
2021/07/24 03:30:46;;;;;;;3.93;3.63;;;;;24.00;99982.00;;;;2059532;28;20453;-64
2021/07/24 03:31:46;;;;;;;4.20;3.90;;;;;24.00;99993.00;;;;2059328;28;20222;-65
2021/07/24 03:32:47;;;;;;;3.80;3.40;;;;;24.00;99987.00;;;;2058889;28;20230;-65
2021/07/24 03:33:47;;;;;;;3.50;3.30;;;;;24.00;99984.00;;;;2059278;28;20643;-65
2021/07/24 03:34:47;;;;;;;4.00;3.70;;;;;24.00;99985.00;;;;2059194;28;20691;-65
2021/07/24 03:35:48;;;;;;;4.53;4.20;;;;;24.00;99984.00;;;;2059949;28;20718;-65
2021/07/24 03:36:48;;;;;;;4.47;4.07;;;;;24.00;99980.00;;;;2060253;28;20250;-65
2021/07/24 03:37:48;;;;;;;4.00;3.70;;;;;24.00;99986.00;;;;2061879;28;20215;-64
2021/07/24 03:38:48;;;;;;;4.17;3.87;;;;;24.00;99979.00;;;;2061736;28;20215;-65
2021/07/24 03:39:49;;;;;;;3.77;3.47;;;;;24.00;99980.00;;;;2060453;28;20218;-65
2021/07/24 03:40:49;;;;;;;4.10;3.80;;;;;24.00;99989.00;;;;2058710;28;20257;-65
2021/07/24 03:41:50;;;;;;;3.93;3.63;;;;;24.00;99979.00;;;;2059965;28;20238;-65
2021/07/24 03:42:50;;;;;;;4.20;3.90;;;;;24.00;99984.00;;;;2059458;28;20314;-64
2021/07/24 03:43:50;;;;;;;4.00;3.70;;;;;24.00;99983.00;;;;2059740;28;20223;-65
2021/07/24 03:44:51;;;;;;;4.03;3.73;;;;;24.00;99980.00;;;;2060617;28;20211;-65
2021/07/24 03:45:51;;;;;;;3.90;3.60;;;;;24.00;99979.00;;;;2060399;28;20243;-65
2021/07/24 03:46:51;;;;;;;4.50;4.10;;;;;24.00;99976.00;;;;2060429;28;20226;-65
2021/07/24 03:47:52;;;;;;;3.90;3.60;;;;;24.00;99986.00;;;;2060268;28;20558;-65
2021/07/24 03:48:55;;;;;;;3.77;3.47;;;;;24.00;99983.00;;;;2060137;28;20736;-65
2021/07/24 03:49:57;;;;;;;3.58;3.28;;;;;24.00;99984.00;;;;2059764;28;20313;-65
2021/07/24 03:50:57;;;;;;;4.30;3.90;;;;;24.00;99977.00;;;;2059290;28;20259;-65
2021/07/24 03:51:57;;;;;;;3.90;3.60;;;;;24.00;99979.00;;;;2050116;28;20271;-65
2021/07/24 03:52:58;;;;;;;3.97;3.67;;;;;24.00;99981.00;;;;2059977;28;20302;-65
2021/07/24 03:53:58;;;;;;;4.73;4.33;;;;;24.00;99978.00;;;;2060098;28;20220;-65
2021/07/24 03:54:58;;;;;;;4.40;4.00;;;;;24.00;99984.00;;;;2060465;28;20223;-65
2021/07/24 03:55:59;;;;;;;3.93;3.63;;;;;24.00;99993.00;;;;2060396;28;20230;-65
2021/07/24 03:56:59;;;;;;;4.27;3.90;;;;;24.00;99989.00;;;;2060090;28;20571;-65
2021/07/24 03:58:00;;;;;;;4.03;3.73;;;;;24.00;99997.00;;;;2059809;28;20558;-65
2021/07/24 03:59:01;;;;;;;3.63;3.33;;;;;24.00;99992.00;;;;2059695;28;20298;-65
2021/07/24 04:00:03;;;;;;;4.27;3.93;;;;;24.00;99995.00;;;;2059695;28;20231;-65
2021/07/24 04:01:07;;;;;;;3.92;3.63;;;;;24.00;99989.00;;;;2059668;28;20975;-65
2021/07/24 04:02:12;;;;;;;4.00;3.70;;;;;24.00;99983.00;;;;2060568;28;20224;-65
2021/07/24 04:03:13;;;;;;;3.65;3.35;;;;;24.00;99986.00;;;;2050390;28;20265;-65
2021/07/24 04:04:15;;;;;;;4.30;3.90;;;;;24.00;99979.00;;;;2059072;28;20840;-65
2021/07/24 04:05:17;;;;;;;4.03;3.72;;;;;24.00;99983.00;;;;2059635;28;20246;-65
2021/07/24 04:06:22;;;;;;;4.45;4.15;;;;;24.00;99980.00;;;;2059104;28;20226;-65
2021/07/24 04:07:22;;;;;;;4.57;4.28;;;;;24.00;99985.00;;;;2060752;28;20234;-65
2021/07/24 04:08:23;;;;;;;4.13;3.73;;;;;24.00;99985.00;;;;2052557;28;20216;-65
2021/07/24 04:09:23;;;;;;;4.00;3.70;;;;;24.00;99981.00;;;;2049358;28;20707;-65
2021/07/24 04:10:23;;;;;;;4.30;4.00;;;;;24.00;99989.00;;;;2053006;28;20278;-64
2021/07/24 04:11:24;;;;;;;4.80;4.40;;;;;24.00;99984.00;;;;2059371;28;20219;-65
2021/07/24 04:12:24;;;;;;;3.80;3.50;;;;;24.00;99979.00;;;;2060263;28;20219;-65
2021/07/24 04:13:25;;;;;;;4.03;3.73;;;;;24.00;99983.00;;;;2060164;28;20230;-64
2021/07/24 04:14:25;;;;;;;4.20;3.90;;;;;24.00;99978.00;;;;2050944;28;20223;-65
2021/07/24 04:15:25;;;;;;;4.13;3.83;;;;;24.00;99973.00;;;;2051347;28;20726;-64
2021/07/24 04:16:27;;;;;;;4.33;4.03;;;;;24.00;99974.00;;;;2051165;28;20223;-65
2021/07/24 04:17:27;;;;;;;4.13;3.83;;;;;24.00;99981.00;;;;2051032;28;20212;-65
2021/07/24 04:18:31;;;;;;;4.07;3.77;;;;;24.00;99976.00;;;;2059464;28;20214;-65
2021/07/24 04:19:31;;;;;;;4.50;4.13;;;;;24.00;99973.00;;;;2055809;28;20581;-65
2021/07/24 04:20:31;;;;;;;3.67;3.37;;;;;24.00;99966.00;;;;2059568;28;20258;-65
2021/07/24 04:21:32;;;;;;;4.30;3.90;;;;;24.00;99962.00;;;;2060457;28;20212;-65
2021/07/24 04:22:32;;;;;;;4.10;3.80;;;;;24.00;99966.00;;;;2060345;28;20367;-65
2021/07/24 04:23:32;;;;;;;3.80;3.50;;;;;24.00;99961.00;;;;2060145;28;20211;-65
2021/07/24 04:24:33;;;;;;;4.07;3.77;;;;;24.00;99956.00;;;;2059328;28;20223;-64
2021/07/24 04:25:33;;;;;;;4.20;3.90;;;;;24.00;99955.00;;;;2059649;28;20238;-65
2021/07/24 04:26:33;;;;;;;4.20;3.90;;;;;24.00;99953.00;;;;2059591;28;20216;-65
2021/07/24 04:27:34;;;;;;;3.97;3.67;;;;;24.00;99955.00;;;;2059480;28;20231;-65
2021/07/24 04:28:34;;;;;;;4.33;3.93;;;;;24.00;99960.00;;;;2060203;28;20258;-65
2021/07/24 04:29:34;;;;;;;4.33;3.93;;;;;24.00;99964.00;;;;2060181;28;20215;-64
2021/07/24 04:30:35;;;;;;;4.10;3.80;;;;;24.00;99961.00;;;;2059725;28;20251;-65
2021/07/24 04:31:36;;;;;;;4.20;3.90;;;;;24.00;99955.00;;;;2060468;28;21056;-65
2021/07/24 04:32:36;;;;;;;3.70;3.42;;;;;24.00;99950.00;;;;2059579;28;20578;-65
2021/07/24 04:33:36;;;;;;;4.40;4.10;;;;;24.00;99950.00;;;;2059439;28;20238;-65
2021/07/24 04:34:37;;;;;;;4.10;3.80;;;;;24.00;99944.00;;;;2059422;28;20281;-65
2021/07/24 04:35:37;;;;;;;4.07;3.77;;;;;24.00;99952.00;;;;2059284;28;20219;-65
2021/07/24 04:36:38;;;;;;;4.07;3.77;;;;;24.00;99945.00;;;;2059625;28;20239;-65
2021/07/24 04:37:39;;;;;;;4.05;3.75;;;;;24.00;99956.00;;;;2062316;28;20213;-65
2021/07/24 04:38:40;;;;;;;3.90;3.60;;;;;24.00;99957.00;;;;2061501;28;20211;-65
2021/07/24 04:39:40;;;;;;;4.57;4.17;;;;;24.00;99957.00;;;;2060663;28;20203;-65
2021/07/24 04:40:40;;;;;;;4.10;3.80;;;;;24.00;99966.00;;;;2059328;28;20489;-65
2021/07/24 04:41:42;;;;;;;3.90;3.60;;;;;24.00;99960.00;;;;2059536;28;20788;-65
2021/07/24 04:42:42;;;;;;;4.50;3.95;;;;;24.00;99964.00;;;;2059231;28;20223;-65
2021/07/24 04:43:44;;;;;;;4.40;4.10;;;;;24.00;99966.00;;;;2059023;28;20211;-64
2021/07/24 04:44:44;;;;;;;4.25;3.95;;;;;24.00;99961.00;;;;2059417;28;20215;-64
2021/07/24 04:45:44;;;;;;;4.90;4.50;;;;;23.90;99963.00;;;;2060287;28;20222;-65
2021/07/24 04:46:45;;;;;;;4.47;3.90;;;;;24.00;99966.00;;;;2060146;28;20219;-65
2021/07/24 04:47:45;;;;;;;3.90;3.60;;;;;24.00;99966.00;;;;2060202;28;20783;-64
2021/07/24 04:48:45;;;;;;;4.30;4.00;;;;;24.00;99965.00;;;;2060234;28;20593;-65
2021/07/24 04:49:50;;;;;;;4.77;4.37;;;;;24.00;99965.00;;;;2059480;28;20682;-64
2021/07/24 04:50:53;;;;;;;4.60;4.20;;;;;24.00;99969.00;;;;2058273;28;20215;-64
2021/07/24 04:51:53;;;;;;;3.90;3.60;;;;;24.00;99963.00;;;;2050380;28;20224;-65
2021/07/24 04:52:53;;;;;;;3.97;3.67;;;;;24.00;99958.00;;;;2049822;28;20585;-65
2021/07/24 04:53:55;;;;;;;4.00;3.70;;;;;24.00;99959.00;;;;2060172;28;20236;-65
2021/07/24 04:54:56;;;;;;;3.63;3.42;;;;;24.00;99968.00;;;;2051591;28;21022;-65
2021/07/24 04:55:56;;;;;;;4.80;4.40;;;;;24.00;99967.00;;;;2051750;28;20227;-64
2021/07/24 04:56:56;;;;;;;4.13;3.83;;;;;24.00;99957.00;;;;2059585;28;20746;-65
2021/07/24 04:57:57;;;;;;;3.87;3.57;;;;;24.00;99955.00;;;;2050760;28;20698;-65
2021/07/24 04:58:59;;;;;;;4.10;3.80;;;;;24.00;99953.00;;;;2050748;28;20216;-65
2021/07/24 05:00:00;;;;;;;3.75;3.45;;;;;24.00;99956.00;;;;2050362;28;20249;-65
2021/07/24 05:01:00;;;;;;;4.30;4.00;;;;;24.00;99954.00;;;;2050088;28;20217;-65
2021/07/24 05:02:00;;;;;;;3.90;3.60;;;;;24.00;99949.00;;;;2050709;28;20252;-64
2021/07/24 05:03:01;;;;;;;4.00;3.70;;;;;24.00;99949.00;;;;2050980;28;20208;-64
2021/07/24 05:04:02;;;;;;;4.35;4.05;;;;;24.00;99954.00;;;;2059501;28;20219;-65
2021/07/24 05:05:03;;;;;;;3.97;3.67;;;;;24.00;99951.00;;;;2050887;28;20239;-65
2021/07/24 05:06:04;;;;;;;3.77;3.47;;;;;24.00;99952.00;;;;2049866;28;20215;-65